sensor_id;sensor_type;location;lat;lon;timestamp;temperature;humidity
35523;DHT22;61478;50.820;4.330;2022-09-17T00:01:07;11.70;99.90
35523;DHT22;61478;50.820;4.330;2022-09-17T00:03:34;11.70;99.90
35523;DHT22;61478;50.820;4.330;2022-09-17T00:06:06;11.80;99.90
35523;DHT22;61478;50.820;4.330;2022-09-17T00:08:33;12.00;99.90
35523;DHT22;61478;50.820;4.330;2022-09-17T00:11:11;12.10;99.90
35523;DHT22;61478;50.820;4.330;2022-09-17T00:13:38;12.00;99.90
35523;DHT22;61478;50.820;4.330;2022-09-17T00:16:05;12.30;99.90
35523;DHT22;61478;50.820;4.330;2022-09-17T00:18:31;12.50;99.90
35523;DHT22;61478;50.820;4.330;2022-09-17T00:20:57;12.30;99.90
35523;DHT22;61478;50.820;4.330;2022-09-17T00:23:23;12.10;99.90
35523;DHT22;61478;50.820;4.330;2022-09-17T00:25:49;12.00;99.90
35523;DHT22;61478;50.820;4.330;2022-09-17T00:28:14;11.90;99.90
35523;DHT22;61478;50.820;4.330;2022-09-17T00:30:42;12.00;99.90
35523;DHT22;61478;50.820;4.330;2022-09-17T00:33:11;11.90;99.90
35523;DHT22;61478;50.820;4.330;2022-09-17T00:35:38;11.80;99.90
35523;DHT22;61478;50.820;4.330;2022-09-17T00:38:04;11.90;99.90
35523;DHT22;61478;50.820;4.330;2022-09-17T00:40:30;11.80;99.90
35523;DHT22;61478;50.820;4.330;2022-09-17T00:42:56;11.70;99.90
35523;DHT22;61478;50.820;4.330;2022-09-17T00:45:22;11.70;99.90
35523;DHT22;61478;50.820;4.330;2022-09-17T00:47:58;11.60;99.90
35523;DHT22;61478;50.820;4.330;2022-09-17T00:50:36;11.70;99.90
35523;DHT22;61478;50.820;4.330;2022-09-17T00:53:13;11.60;99.90
35523;DHT22;61478;50.820;4.330;2022-09-17T00:55:44;11.70;99.90
35523;DHT22;61478;50.820;4.330;2022-09-17T00:58:14;11.80;99.90
35523;DHT22;61478;50.820;4.330;2022-09-17T01:00:41;11.80;99.90
35523;DHT22;61478;50.820;4.330;2022-09-17T01:03:07;11.70;99.90
35523;DHT22;61478;50.820;4.330;2022-09-17T01:05:43;11.70;99.90
35523;DHT22;61478;50.820;4.330;2022-09-17T01:08:24;11.70;99.90
35523;DHT22;61478;50.820;4.330;2022-09-17T01:16:26;11.70;99.90
35523;DHT22;61478;50.820;4.330;2022-09-17T01:21:45;11.80;99.90
35523;DHT22;61478;50.820;4.330;2022-09-17T01:27:19;11.80;99.90
35523;DHT22;61478;50.820;4.330;2022-09-17T01:33:14;11.70;99.90
35523;DHT22;61478;50.820;4.330;2022-09-17T01:35:50;11.90;99.90
35523;DHT22;61478;50.820;4.330;2022-09-17T01:38:24;11.90;99.90
35523;DHT22;61478;50.820;4.330;2022-09-17T01:43:24;11.80;99.90
35523;DHT22;61478;50.820;4.330;2022-09-17T01:46:08;11.80;99.90
35523;DHT22;61478;50.820;4.330;2022-09-17T01:48:41;11.70;99.90
35523;DHT22;61478;50.820;4.330;2022-09-17T01:51:17;11.70;99.90
35523;DHT22;61478;50.820;4.330;2022-09-17T01:53:59;11.70;99.90
35523;DHT22;61478;50.820;4.330;2022-09-17T01:56:44;11.70;99.90
35523;DHT22;61478;50.820;4.330;2022-09-17T01:59:23;11.70;99.90
35523;DHT22;61478;50.820;4.330;2022-09-17T02:01:55;11.80;99.90
35523;DHT22;61478;50.820;4.330;2022-09-17T02:04:33;11.80;99.90
35523;DHT22;61478;50.820;4.330;2022-09-17T02:07:10;11.70;99.90
35523;DHT22;61478;50.820;4.330;2022-09-17T02:09:48;11.80;99.90
35523;DHT22;61478;50.820;4.330;2022-09-17T02:12:22;12.00;99.90
35523;DHT22;61478;50.820;4.330;2022-09-17T02:14:56;12.00;99.90
35523;DHT22;61478;50.820;4.330;2022-09-17T02:17:29;12.00;99.90
35523;DHT22;61478;50.820;4.330;2022-09-17T02:19:57;11.90;99.90
35523;DHT22;61478;50.820;4.330;2022-09-17T02:22:47;11.90;99.90
35523;DHT22;61478;50.820;4.330;2022-09-17T02:25:32;11.90;99.90
35523;DHT22;61478;50.820;4.330;2022-09-17T02:28:13;12.00;99.90
35523;DHT22;61478;50.820;4.330;2022-09-17T02:30:42;11.90;99.90
35523;DHT22;61478;50.820;4.330;2022-09-17T02:33:11;11.90;99.90
35523;DHT22;61478;50.820;4.330;2022-09-17T02:35:38;12.00;99.90
35523;DHT22;61478;50.820;4.330;2022-09-17T02:38:04;12.20;99.90
35523;DHT22;61478;50.820;4.330;2022-09-17T02:40:35;12.30;99.90
35523;DHT22;61478;50.820;4.330;2022-09-17T02:43:12;12.60;99.90
35523;DHT22;61478;50.820;4.330;2022-09-17T02:54:37;12.40;99.90
35523;DHT22;61478;50.820;4.330;2022-09-17T03:02:38;12.00;99.90
35523;DHT22;61478;50.820;4.330;2022-09-17T03:05:07;11.90;99.90
35523;DHT22;61478;50.820;4.330;2022-09-17T03:07:34;11.90;99.90
35523;DHT22;61478;50.820;4.330;2022-09-17T03:10:00;11.80;99.90
35523;DHT22;61478;50.820;4.330;2022-09-17T03:12:26;11.70;99.90
35523;DHT22;61478;50.820;4.330;2022-09-17T03:14:52;11.80;99.90
35523;DHT22;61478;50.820;4.330;2022-09-17T03:17:18;11.60;99.90
35523;DHT22;61478;50.820;4.330;2022-09-17T03:19:44;11.60;99.90
35523;DHT22;61478;50.820;4.330;2022-09-17T03:22:11;11.60;99.90
35523;DHT22;61478;50.820;4.330;2022-09-17T03:24:37;11.50;99.90
35523;DHT22;61478;50.820;4.330;2022-09-17T03:27:03;11.60;99.90
35523;DHT22;61478;50.820;4.330;2022-09-17T03:29:29;11.50;99.90
35523;DHT22;61478;50.820;4.330;2022-09-17T03:31:54;11.40;99.90
35523;DHT22;61478;50.820;4.330;2022-09-17T03:34:20;11.50;99.90
35523;DHT22;61478;50.820;4.330;2022-09-17T03:36:46;11.40;99.90
35523;DHT22;61478;50.820;4.330;2022-09-17T03:39:12;11.40;99.90
35523;DHT22;61478;50.820;4.330;2022-09-17T03:41:38;11.30;99.90
35523;DHT22;61478;50.820;4.330;2022-09-17T03:44:04;11.30;99.90
35523;DHT22;61478;50.820;4.330;2022-09-17T03:46:31;11.30;99.90
35523;DHT22;61478;50.820;4.330;2022-09-17T03:48:57;11.20;99.90
35523;DHT22;61478;50.820;4.330;2022-09-17T03:51:23;11.20;99.90
35523;DHT22;61478;50.820;4.330;2022-09-17T03:53:48;11.10;99.90
35523;DHT22;61478;50.820;4.330;2022-09-17T03:56:14;11.10;99.90
35523;DHT22;61478;50.820;4.330;2022-09-17T03:58:40;11.10;99.90
35523;DHT22;61478;50.820;4.330;2022-09-17T04:01:06;11.10;99.90
35523;DHT22;61478;50.820;4.330;2022-09-17T04:03:32;11.10;99.90
35523;DHT22;61478;50.820;4.330;2022-09-17T04:05:58;11.00;99.90
35523;DHT22;61478;50.820;4.330;2022-09-17T04:08:24;11.00;99.90
35523;DHT22;61478;50.820;4.330;2022-09-17T04:10:50;11.00;99.90
35523;DHT22;61478;50.820;4.330;2022-09-17T04:13:17;11.00;99.90
35523;DHT22;61478;50.820;4.330;2022-09-17T04:15:44;11.10;99.90
35523;DHT22;61478;50.820;4.330;2022-09-17T04:18:10;11.10;99.90
35523;DHT22;61478;50.820;4.330;2022-09-17T04:20:37;11.00;99.90
35523;DHT22;61478;50.820;4.330;2022-09-17T04:23:03;11.10;99.90
35523;DHT22;61478;50.820;4.330;2022-09-17T04:25:29;11.10;99.90
35523;DHT22;61478;50.820;4.330;2022-09-17T04:27:55;11.10;99.90
35523;DHT22;61478;50.820;4.330;2022-09-17T04:30:21;11.10;99.90
35523;DHT22;61478;50.820;4.330;2022-09-17T04:32:47;11.10;99.90
35523;DHT22;61478;50.820;4.330;2022-09-17T04:35:13;11.10;99.90
35523;DHT22;61478;50.820;4.330;2022-09-17T04:37:39;11.00;99.90
35523;DHT22;61478;50.820;4.330;2022-09-17T04:40:06;11.00;99.90
35523;DHT22;61478;50.820;4.330;2022-09-17T04:42:32;11.00;99.90
35523;DHT22;61478;50.820;4.330;2022-09-17T04:44:58;11.00;99.90
35523;DHT22;61478;50.820;4.330;2022-09-17T04:47:24;10.90;99.90
35523;DHT22;61478;50.820;4.330;2022-09-17T04:49:50;11.10;99.90
35523;DHT22;61478;50.820;4.330;2022-09-17T04:52:16;11.10;99.90
35523;DHT22;61478;50.820;4.330;2022-09-17T04:54:42;11.10;99.90
35523;DHT22;61478;50.820;4.330;2022-09-17T04:57:08;11.10;99.90
35523;DHT22;61478;50.820;4.330;2022-09-17T04:59:34;11.20;99.90
35523;DHT22;61478;50.820;4.330;2022-09-17T05:02:00;11.20;99.90
35523;DHT22;61478;50.820;4.330;2022-09-17T05:04:25;11.20;99.90
35523;DHT22;61478;50.820;4.330;2022-09-17T05:06:51;11.20;99.90
35523;DHT22;61478;50.820;4.330;2022-09-17T05:09:17;11.20;99.90
35523;DHT22;61478;50.820;4.330;2022-09-17T05:11:43;11.20;99.90
35523;DHT22;61478;50.820;4.330;2022-09-17T05:14:09;11.20;99.90
35523;DHT22;61478;50.820;4.330;2022-09-17T05:16:35;11.20;99.90
35523;DHT22;61478;50.820;4.330;2022-09-17T05:19:01;11.10;99.90
35523;DHT22;61478;50.820;4.330;2022-09-17T05:21:27;11.10;99.90
35523;DHT22;61478;50.820;4.330;2022-09-17T05:23:53;11.10;99.90
35523;DHT22;61478;50.820;4.330;2022-09-17T05:26:19;11.20;99.90
35523;DHT22;61478;50.820;4.330;2022-09-17T05:28:44;11.30;99.90
35523;DHT22;61478;50.820;4.330;2022-09-17T05:31:10;11.30;99.90
35523;DHT22;61478;50.820;4.330;2022-09-17T05:33:36;11.30;99.90
35523;DHT22;61478;50.820;4.330;2022-09-17T05:36:02;11.20;99.90
35523;DHT22;61478;50.820;4.330;2022-09-17T05:38:29;11.30;99.90
35523;DHT22;61478;50.820;4.330;2022-09-17T05:40:55;11.30;99.90
35523;DHT22;61478;50.820;4.330;2022-09-17T05:43:21;11.20;99.90
35523;DHT22;61478;50.820;4.330;2022-09-17T05:45:48;11.10;99.90
35523;DHT22;61478;50.820;4.330;2022-09-17T05:48:15;11.10;99.90
35523;DHT22;61478;50.820;4.330;2022-09-17T05:50:41;11.10;99.90
35523;DHT22;61478;50.820;4.330;2022-09-17T05:53:10;11.30;99.90
35523;DHT22;61478;50.820;4.330;2022-09-17T05:55:36;11.70;99.90
35523;DHT22;61478;50.820;4.330;2022-09-17T05:58:16;12.00;99.90
35523;DHT22;61478;50.820;4.330;2022-09-17T06:00:43;12.20;99.90
35523;DHT22;61478;50.820;4.330;2022-09-17T06:03:12;12.40;99.90
35523;DHT22;61478;50.820;4.330;2022-09-17T06:05:38;12.50;99.90
35523;DHT22;61478;50.820;4.330;2022-09-17T06:08:04;12.30;99.90
35523;DHT22;61478;50.820;4.330;2022-09-17T06:10:30;12.40;99.90
35523;DHT22;61478;50.820;4.330;2022-09-17T06:12:57;12.40;99.90
35523;DHT22;61478;50.820;4.330;2022-09-17T06:15:24;12.50;99.90
35523;DHT22;61478;50.820;4.330;2022-09-17T06:17:50;12.50;99.90
35523;DHT22;61478;50.820;4.330;2022-09-17T06:20:20;12.30;99.90
35523;DHT22;61478;50.820;4.330;2022-09-17T06:22:46;12.20;99.90
35523;DHT22;61478;50.820;4.330;2022-09-17T06:25:12;12.20;99.90
35523;DHT22;61478;50.820;4.330;2022-09-17T06:27:38;12.30;99.90
35523;DHT22;61478;50.820;4.330;2022-09-17T06:30:05;12.20;99.90
35523;DHT22;61478;50.820;4.330;2022-09-17T06:32:31;12.10;99.90
35523;DHT22;61478;50.820;4.330;2022-09-17T06:34:57;12.00;99.90
35523;DHT22;61478;50.820;4.330;2022-09-17T06:37:30;12.00;99.90
35523;DHT22;61478;50.820;4.330;2022-09-17T06:39:56;12.00;99.90
35523;DHT22;61478;50.820;4.330;2022-09-17T06:42:24;11.90;99.90
35523;DHT22;61478;50.820;4.330;2022-09-17T06:44:50;11.90;99.90
35523;DHT22;61478;50.820;4.330;2022-09-17T06:47:16;11.90;99.90
35523;DHT22;61478;50.820;4.330;2022-09-17T06:49:42;11.90;99.90
35523;DHT22;61478;50.820;4.330;2022-09-17T06:52:08;11.90;99.90
35523;DHT22;61478;50.820;4.330;2022-09-17T06:54:35;11.90;99.90
35523;DHT22;61478;50.820;4.330;2022-09-17T06:57:00;11.90;99.90
35523;DHT22;61478;50.820;4.330;2022-09-17T06:59:27;11.90;99.90
35523;DHT22;61478;50.820;4.330;2022-09-17T07:01:53;12.00;99.90
35523;DHT22;61478;50.820;4.330;2022-09-17T07:04:19;11.90;99.90
35523;DHT22;61478;50.820;4.330;2022-09-17T07:06:45;12.00;99.90
35523;DHT22;61478;50.820;4.330;2022-09-17T07:09:11;12.00;99.90
35523;DHT22;61478;50.820;4.330;2022-09-17T07:11:38;12.10;99.90
35523;DHT22;61478;50.820;4.330;2022-09-17T07:14:04;12.00;99.90
35523;DHT22;61478;50.820;4.330;2022-09-17T07:16:31;12.10;99.90
35523;DHT22;61478;50.820;4.330;2022-09-17T07:19:03;12.20;99.90
35523;DHT22;61478;50.820;4.330;2022-09-17T07:21:29;12.10;99.90
35523;DHT22;61478;50.820;4.330;2022-09-17T07:23:55;12.10;99.90
35523;DHT22;61478;50.820;4.330;2022-09-17T07:26:20;12.20;99.90
35523;DHT22;61478;50.820;4.330;2022-09-17T07:28:46;12.30;99.90
35523;DHT22;61478;50.820;4.330;2022-09-17T07:31:12;12.30;99.90
35523;DHT22;61478;50.820;4.330;2022-09-17T07:33:39;12.30;99.90
35523;DHT22;61478;50.820;4.330;2022-09-17T07:36:08;12.40;99.90
35523;DHT22;61478;50.820;4.330;2022-09-17T07:38:35;12.40;99.90
35523;DHT22;61478;50.820;4.330;2022-09-17T07:41:11;12.40;99.90
35523;DHT22;61478;50.820;4.330;2022-09-17T07:43:38;12.30;99.90
35523;DHT22;61478;50.820;4.330;2022-09-17T07:46:05;12.40;99.90
35523;DHT22;61478;50.820;4.330;2022-09-17T07:48:32;12.40;99.90
35523;DHT22;61478;50.820;4.330;2022-09-17T07:50:58;12.40;99.90
35523;DHT22;61478;50.820;4.330;2022-09-17T07:53:24;12.40;99.90
35523;DHT22;61478;50.820;4.330;2022-09-17T07:55:51;12.50;99.90
35523;DHT22;61478;50.820;4.330;2022-09-17T07:58:17;12.60;99.90
35523;DHT22;61478;50.820;4.330;2022-09-17T08:00:43;12.70;99.90
35523;DHT22;61478;50.820;4.330;2022-09-17T08:03:09;12.70;99.90
35523;DHT22;61478;50.820;4.330;2022-09-17T08:05:35;12.70;99.90
35523;DHT22;61478;50.820;4.330;2022-09-17T08:08:01;12.70;99.90
35523;DHT22;61478;50.820;4.330;2022-09-17T08:10:28;12.80;99.90
35523;DHT22;61478;50.820;4.330;2022-09-17T08:12:55;13.00;99.90
35523;DHT22;61478;50.820;4.330;2022-09-17T08:15:22;13.00;99.90
35523;DHT22;61478;50.820;4.330;2022-09-17T08:17:49;13.00;99.90
35523;DHT22;61478;50.820;4.330;2022-09-17T08:20:15;13.00;99.90
35523;DHT22;61478;50.820;4.330;2022-09-17T08:22:42;13.00;99.90
35523;DHT22;61478;50.820;4.330;2022-09-17T08:25:09;13.20;99.90
35523;DHT22;61478;50.820;4.330;2022-09-17T08:27:35;13.00;99.90
35523;DHT22;61478;50.820;4.330;2022-09-17T08:30:04;13.10;99.90
35523;DHT22;61478;50.820;4.330;2022-09-17T08:32:30;13.10;99.90
35523;DHT22;61478;50.820;4.330;2022-09-17T08:34:56;13.20;99.90
35523;DHT22;61478;50.820;4.330;2022-09-17T08:37:23;13.20;99.90
35523;DHT22;61478;50.820;4.330;2022-09-17T08:39:49;13.10;99.90
35523;DHT22;61478;50.820;4.330;2022-09-17T08:42:31;13.20;99.90
35523;DHT22;61478;50.820;4.330;2022-09-17T08:45:05;13.30;99.90
35523;DHT22;61478;50.820;4.330;2022-09-17T08:47:38;13.30;99.90
35523;DHT22;61478;50.820;4.330;2022-09-17T08:50:15;13.40;99.90
35523;DHT22;61478;50.820;4.330;2022-09-17T08:56:09;13.90;99.90
35523;DHT22;61478;50.820;4.330;2022-09-17T09:01:33;14.00;99.90
35523;DHT22;61478;50.820;4.330;2022-09-17T09:09:34;13.80;99.90
35523;DHT22;61478;50.820;4.330;2022-09-17T09:12:07;13.60;99.90
35523;DHT22;61478;50.820;4.330;2022-09-17T09:15:25;13.70;99.90
35523;DHT22;61478;50.820;4.330;2022-09-17T09:18:00;13.70;99.90
35523;DHT22;61478;50.820;4.330;2022-09-17T09:20:49;13.90;99.90
35523;DHT22;61478;50.820;4.330;2022-09-17T09:26:20;13.70;99.90
35523;DHT22;61478;50.820;4.330;2022-09-17T09:29:03;13.60;99.90
35523;DHT22;61478;50.820;4.330;2022-09-17T09:31:43;13.70;99.90
35523;DHT22;61478;50.820;4.330;2022-09-17T09:34:13;13.90;99.90
35523;DHT22;61478;50.820;4.330;2022-09-17T09:36:41;14.20;99.90
35523;DHT22;61478;50.820;4.330;2022-09-17T09:39:28;14.40;99.90
35523;DHT22;61478;50.820;4.330;2022-09-17T09:42:12;14.70;99.90
35523;DHT22;61478;50.820;4.330;2022-09-17T09:44:41;14.70;99.90
35523;DHT22;61478;50.820;4.330;2022-09-17T09:47:34;14.90;99.90
35523;DHT22;61478;50.820;4.330;2022-09-17T09:50:36;14.60;99.90
35523;DHT22;61478;50.820;4.330;2022-09-17T09:56:56;14.00;99.90
35523;DHT22;61478;50.820;4.330;2022-09-17T09:59:28;14.00;99.90
35523;DHT22;61478;50.820;4.330;2022-09-17T10:01:58;14.00;99.90
35523;DHT22;61478;50.820;4.330;2022-09-17T10:04:28;14.10;99.90
35523;DHT22;61478;50.820;4.330;2022-09-17T10:07:08;14.30;99.90
35523;DHT22;61478;50.820;4.330;2022-09-17T10:09:41;14.20;99.90
35523;DHT22;61478;50.820;4.330;2022-09-17T10:14:45;14.30;99.90
35523;DHT22;61478;50.820;4.330;2022-09-17T10:17:32;14.40;99.90
35523;DHT22;61478;50.820;4.330;2022-09-17T10:22:39;14.90;99.90
35523;DHT22;61478;50.820;4.330;2022-09-17T10:25:34;15.30;99.90
35523;DHT22;61478;50.820;4.330;2022-09-17T10:28:11;15.00;99.90
35523;DHT22;61478;50.820;4.330;2022-09-17T10:31:03;15.20;99.90
35523;DHT22;61478;50.820;4.330;2022-09-17T10:33:36;15.30;99.90
35523;DHT22;61478;50.820;4.330;2022-09-17T10:36:13;15.30;99.90
35523;DHT22;61478;50.820;4.330;2022-09-17T10:38:44;15.60;99.90
35523;DHT22;61478;50.820;4.330;2022-09-17T10:41:25;15.40;99.90
35523;DHT22;61478;50.820;4.330;2022-09-17T10:43:54;15.20;99.90
35523;DHT22;61478;50.820;4.330;2022-09-17T10:46:29;14.90;99.90
35523;DHT22;61478;50.820;4.330;2022-09-17T10:49:52;14.60;99.90
35523;DHT22;61478;50.820;4.330;2022-09-17T10:54:39;14.90;99.90
35523;DHT22;61478;50.820;4.330;2022-09-17T10:57:17;14.70;99.90
35523;DHT22;61478;50.820;4.330;2022-09-17T11:02:57;14.50;99.90
35523;DHT22;61478;50.820;4.330;2022-09-17T11:05:33;14.30;99.90
35523;DHT22;61478;50.820;4.330;2022-09-17T11:08:29;14.70;99.90
35523;DHT22;61478;50.820;4.330;2022-09-17T11:11:23;14.60;99.90
35523;DHT22;61478;50.820;4.330;2022-09-17T11:14:34;14.70;99.90
35523;DHT22;61478;50.820;4.330;2022-09-17T11:23:13;15.70;99.90
35523;DHT22;61478;50.820;4.330;2022-09-17T11:25:45;15.50;99.90
35523;DHT22;61478;50.820;4.330;2022-09-17T11:31:38;15.10;99.90
35523;DHT22;61478;50.820;4.330;2022-09-17T11:36:56;15.70;99.90
35523;DHT22;61478;50.820;4.330;2022-09-17T11:39:56;15.70;99.90
35523;DHT22;61478;50.820;4.330;2022-09-17T11:42:31;16.10;99.90
35523;DHT22;61478;50.820;4.330;2022-09-17T11:45:14;15.50;99.90
35523;DHT22;61478;50.820;4.330;2022-09-17T11:47:55;15.60;99.90
35523;DHT22;61478;50.820;4.330;2022-09-17T11:50:45;15.70;99.90
35523;DHT22;61478;50.820;4.330;2022-09-17T11:53:42;15.50;99.90
35523;DHT22;61478;50.820;4.330;2022-09-17T11:56:33;15.10;99.90
35523;DHT22;61478;50.820;4.330;2022-09-17T12:01:49;14.90;99.90
35523;DHT22;61478;50.820;4.330;2022-09-17T12:04:31;15.30;99.90
35523;DHT22;61478;50.820;4.330;2022-09-17T12:15:33;15.50;99.90
35523;DHT22;61478;50.820;4.330;2022-09-17T12:20:45;16.10;99.90
35523;DHT22;61478;50.820;4.330;2022-09-17T12:23:19;16.30;99.90
35523;DHT22;61478;50.820;4.330;2022-09-17T12:35:04;15.60;99.90
35523;DHT22;61478;50.820;4.330;2022-09-17T12:48:05;16.50;99.90
35523;DHT22;61478;50.820;4.330;2022-09-17T12:50:47;16.30;99.90
35523;DHT22;61478;50.820;4.330;2022-09-17T12:53:55;15.80;99.90
35523;DHT22;61478;50.820;4.330;2022-09-17T12:56:34;15.80;99.90
35523;DHT22;61478;50.820;4.330;2022-09-17T12:59:15;16.20;99.90
35523;DHT22;61478;50.820;4.330;2022-09-17T13:02:23;16.60;99.90
35523;DHT22;61478;50.820;4.330;2022-09-17T13:07:55;16.80;99.90
35523;DHT22;61478;50.820;4.330;2022-09-17T13:10:55;16.60;99.90
35523;DHT22;61478;50.820;4.330;2022-09-17T13:13:53;16.40;99.90
35523;DHT22;61478;50.820;4.330;2022-09-17T13:16:25;16.20;99.90
35523;DHT22;61478;50.820;4.330;2022-09-17T13:21:53;15.90;99.90
35523;DHT22;61478;50.820;4.330;2022-09-17T13:24:24;15.70;99.90
35523;DHT22;61478;50.820;4.330;2022-09-17T13:26:53;15.70;99.90
35523;DHT22;61478;50.820;4.330;2022-09-17T13:40:31;16.30;99.90
35523;DHT22;61478;50.820;4.330;2022-09-17T13:43:15;16.30;99.90
35523;DHT22;61478;50.820;4.330;2022-09-17T13:48:29;16.40;99.90
35523;DHT22;61478;50.820;4.330;2022-09-17T13:50:56;16.30;99.90
35523;DHT22;61478;50.820;4.330;2022-09-17T13:53:26;16.50;99.90
35523;DHT22;61478;50.820;4.330;2022-09-17T13:55:56;16.00;99.90
35523;DHT22;61478;50.820;4.330;2022-09-17T13:58:31;15.30;99.90
35523;DHT22;61478;50.820;4.330;2022-09-17T14:01:02;15.10;99.90
35523;DHT22;61478;50.820;4.330;2022-09-17T14:08:53;14.80;99.90
35523;DHT22;61478;50.820;4.330;2022-09-17T14:17:48;14.90;99.90
35523;DHT22;61478;50.820;4.330;2022-09-17T14:20:19;15.10;99.90
35523;DHT22;61478;50.820;4.330;2022-09-17T14:22:58;15.20;99.90
35523;DHT22;61478;50.820;4.330;2022-09-17T14:25:39;15.40;99.90
35523;DHT22;61478;50.820;4.330;2022-09-17T14:28:30;15.60;99.90
35523;DHT22;61478;50.820;4.330;2022-09-17T14:31:05;15.30;99.90
35523;DHT22;61478;50.820;4.330;2022-09-17T14:33:37;15.00;99.90
35523;DHT22;61478;50.820;4.330;2022-09-17T14:36:10;15.20;99.90
35523;DHT22;61478;50.820;4.330;2022-09-17T14:38:46;15.40;99.90
35523;DHT22;61478;50.820;4.330;2022-09-17T14:44:05;15.70;99.90
35523;DHT22;61478;50.820;4.330;2022-09-17T14:46:41;15.60;99.90
35523;DHT22;61478;50.820;4.330;2022-09-17T14:51:46;15.70;99.90
35523;DHT22;61478;50.820;4.330;2022-09-17T14:54:19;15.50;99.90
35523;DHT22;61478;50.820;4.330;2022-09-17T14:56:59;14.60;99.90
35523;DHT22;61478;50.820;4.330;2022-09-17T14:59:51;14.50;99.90
35523;DHT22;61478;50.820;4.330;2022-09-17T15:05:01;14.20;99.90
35523;DHT22;61478;50.820;4.330;2022-09-17T15:07:36;14.20;99.90
35523;DHT22;61478;50.820;4.330;2022-09-17T15:10:15;14.10;99.90
35523;DHT22;61478;50.820;4.330;2022-09-17T15:12:43;14.30;99.90
35523;DHT22;61478;50.820;4.330;2022-09-17T15:15:21;14.20;99.90
35523;DHT22;61478;50.820;4.330;2022-09-17T15:17:49;14.60;99.90
35523;DHT22;61478;50.820;4.330;2022-09-17T15:20:28;14.70;99.90
35523;DHT22;61478;50.820;4.330;2022-09-17T15:23:10;14.60;99.90
35523;DHT22;61478;50.820;4.330;2022-09-17T15:25:41;14.40;99.90
35523;DHT22;61478;50.820;4.330;2022-09-17T15:28:33;14.40;99.90
35523;DHT22;61478;50.820;4.330;2022-09-17T15:31:00;14.70;99.90
35523;DHT22;61478;50.820;4.330;2022-09-17T15:33:27;15.00;99.90
35523;DHT22;61478;50.820;4.330;2022-09-17T15:38:37;15.00;99.90
35523;DHT22;61478;50.820;4.330;2022-09-17T15:41:30;14.90;99.90
35523;DHT22;61478;50.820;4.330;2022-09-17T15:44:25;14.90;99.90
35523;DHT22;61478;50.820;4.330;2022-09-17T15:46:53;15.30;99.90
35523;DHT22;61478;50.820;4.330;2022-09-17T15:49:33;15.50;99.90
35523;DHT22;61478;50.820;4.330;2022-09-17T15:52:28;15.50;99.90
35523;DHT22;61478;50.820;4.330;2022-09-17T15:54:58;15.00;99.90
35523;DHT22;61478;50.820;4.330;2022-09-17T15:57:26;14.80;99.90
35523;DHT22;61478;50.820;4.330;2022-09-17T15:59:53;15.00;99.90
35523;DHT22;61478;50.820;4.330;2022-09-17T16:02:28;15.30;99.90
35523;DHT22;61478;50.820;4.330;2022-09-17T16:07:44;14.50;99.90
35523;DHT22;61478;50.820;4.330;2022-09-17T16:10:13;14.30;99.90
35523;DHT22;61478;50.820;4.330;2022-09-17T16:12:40;14.30;99.90
35523;DHT22;61478;50.820;4.330;2022-09-17T16:15:07;14.40;99.90
35523;DHT22;61478;50.820;4.330;2022-09-17T16:17:43;14.60;99.90
35523;DHT22;61478;50.820;4.330;2022-09-17T16:22:46;15.20;99.90
35523;DHT22;61478;50.820;4.330;2022-09-17T16:25:13;15.40;99.90
35523;DHT22;61478;50.820;4.330;2022-09-17T16:28:02;15.50;99.90
35523;DHT22;61478;50.820;4.330;2022-09-17T16:30:29;15.60;99.90
35523;DHT22;61478;50.820;4.330;2022-09-17T16:32:56;15.20;99.90
35523;DHT22;61478;50.820;4.330;2022-09-17T16:35:24;14.80;99.90
35523;DHT22;61478;50.820;4.330;2022-09-17T16:37:53;14.60;99.90
35523;DHT22;61478;50.820;4.330;2022-09-17T16:40:20;14.60;99.90
35523;DHT22;61478;50.820;4.330;2022-09-17T16:42:47;14.30;99.90
35523;DHT22;61478;50.820;4.330;2022-09-17T16:45:14;14.20;99.90
35523;DHT22;61478;50.820;4.330;2022-09-17T16:47:41;14.10;99.90
35523;DHT22;61478;50.820;4.330;2022-09-17T16:50:10;13.90;99.90
35523;DHT22;61478;50.820;4.330;2022-09-17T16:52:36;13.90;99.90
35523;DHT22;61478;50.820;4.330;2022-09-17T16:55:09;13.80;99.90
35523;DHT22;61478;50.820;4.330;2022-09-17T16:57:38;13.80;99.90
35523;DHT22;61478;50.820;4.330;2022-09-17T17:00:09;13.80;99.90
35523;DHT22;61478;50.820;4.330;2022-09-17T17:02:38;13.80;99.90
35523;DHT22;61478;50.820;4.330;2022-09-17T17:05:07;13.70;99.90
35523;DHT22;61478;50.820;4.330;2022-09-17T17:07:36;13.60;99.90
35523;DHT22;61478;50.820;4.330;2022-09-17T17:10:08;13.60;99.90
35523;DHT22;61478;50.820;4.330;2022-09-17T17:12:36;13.50;99.90
35523;DHT22;61478;50.820;4.330;2022-09-17T17:15:08;13.50;99.90
35523;DHT22;61478;50.820;4.330;2022-09-17T17:17:37;13.50;99.90
35523;DHT22;61478;50.820;4.330;2022-09-17T17:20:07;13.40;99.90
35523;DHT22;61478;50.820;4.330;2022-09-17T17:22:35;13.40;99.90
35523;DHT22;61478;50.820;4.330;2022-09-17T17:25:03;13.50;99.90
35523;DHT22;61478;50.820;4.330;2022-09-17T17:27:33;13.50;99.90
35523;DHT22;61478;50.820;4.330;2022-09-17T17:30:04;13.40;99.90
35523;DHT22;61478;50.820;4.330;2022-09-17T17:32:38;13.40;99.90
35523;DHT22;61478;50.820;4.330;2022-09-17T17:35:05;13.40;99.90
35523;DHT22;61478;50.820;4.330;2022-09-17T17:37:34;13.20;99.90
35523;DHT22;61478;50.820;4.330;2022-09-17T17:40:03;13.20;99.90
35523;DHT22;61478;50.820;4.330;2022-09-17T17:42:34;13.40;99.90
35523;DHT22;61478;50.820;4.330;2022-09-17T17:45:04;13.30;99.90
35523;DHT22;61478;50.820;4.330;2022-09-17T17:47:33;13.30;99.90
35523;DHT22;61478;50.820;4.330;2022-09-17T17:50:03;13.30;99.90
35523;DHT22;61478;50.820;4.330;2022-09-17T17:52:40;13.20;99.90
35523;DHT22;61478;50.820;4.330;2022-09-17T17:55:16;13.20;99.90
35523;DHT22;61478;50.820;4.330;2022-09-17T17:57:48;13.20;99.90
35523;DHT22;61478;50.820;4.330;2022-09-17T18:00:21;13.10;99.90
35523;DHT22;61478;50.820;4.330;2022-09-17T18:02:51;13.10;99.90
35523;DHT22;61478;50.820;4.330;2022-09-17T18:05:17;13.20;99.90
35523;DHT22;61478;50.820;4.330;2022-09-17T18:07:47;13.10;99.90
35523;DHT22;61478;50.820;4.330;2022-09-17T18:10:15;13.00;99.90
35523;DHT22;61478;50.820;4.330;2022-09-17T18:12:44;13.00;99.90
35523;DHT22;61478;50.820;4.330;2022-09-17T18:15:15;13.00;99.90
35523;DHT22;61478;50.820;4.330;2022-09-17T18:17:43;12.90;99.90
35523;DHT22;61478;50.820;4.330;2022-09-17T18:20:15;12.90;99.90
35523;DHT22;61478;50.820;4.330;2022-09-17T18:22:44;12.90;99.90
35523;DHT22;61478;50.820;4.330;2022-09-17T18:25:13;12.90;99.90
35523;DHT22;61478;50.820;4.330;2022-09-17T18:27:39;13.00;99.90
35523;DHT22;61478;50.820;4.330;2022-09-17T18:30:06;12.90;99.90
35523;DHT22;61478;50.820;4.330;2022-09-17T18:32:32;12.90;99.90